createdAt,value
2023-04-17T00:00:40.991Z,34.90
2023-04-17T00:03:08.635Z,31.37
2023-04-17T00:05:36.122Z,29.93
2023-04-17T00:08:03.674Z,30.47
2023-04-17T00:10:31.217Z,35.45
2023-04-17T00:12:58.789Z,35.83
2023-04-17T00:15:26.402Z,31.23
2023-04-17T00:17:54.754Z,32.60
2023-04-17T00:20:22.236Z,28.40
2023-04-17T00:22:50.580Z,28.50
2023-04-17T00:25:18.134Z,30.37
2023-04-17T00:27:45.683Z,32.77
2023-04-17T00:30:14.041Z,32.50
2023-04-17T00:32:41.636Z,30.67
2023-04-17T00:35:09.104Z,31.13
2023-04-17T00:37:36.671Z,31.27
2023-04-17T00:40:04.231Z,30.70
2023-04-17T00:42:32.559Z,29.50
2023-04-17T00:45:00.136Z,28.63
2023-04-17T00:47:27.705Z,30.07
2023-04-17T00:49:55.205Z,30.43
2023-04-17T00:52:29.332Z,28.40
2023-04-17T00:54:56.878Z,29.40
2023-04-17T00:57:25.166Z,30.63
2023-04-17T00:59:52.745Z,29.70
2023-04-17T01:02:20.355Z,33.23
2023-04-17T01:04:47.829Z,28.87
2023-04-17T01:07:16.161Z,28.37
2023-04-17T01:09:43.684Z,31.90
2023-04-17T01:12:23.378Z,35.17
2023-04-17T01:14:53.679Z,31.63
2023-04-17T01:17:21.233Z,30.97
2023-04-17T01:19:48.773Z,29.40
2023-04-17T01:22:18.793Z,32.10
2023-04-17T01:24:46.312Z,31.13
2023-04-17T01:27:14.634Z,31.67
2023-04-17T01:29:42.187Z,29.17
2023-04-17T01:32:09.712Z,31.00
2023-04-17T01:34:37.681Z,32.23
2023-04-17T01:37:04.863Z,35.63
2023-04-17T01:39:32.402Z,31.90
2023-04-17T01:42:00.719Z,31.73
2023-04-17T01:44:28.261Z,30.43
2023-04-17T01:46:55.776Z,32.30
2023-04-17T01:49:24.125Z,32.40
2023-04-17T01:51:51.681Z,32.80
2023-04-17T01:54:19.220Z,33.00
2023-04-17T01:56:46.800Z,33.77
2023-04-17T01:59:14.437Z,33.03
2023-04-17T02:01:41.981Z,34.60
2023-04-17T02:04:09.540Z,32.37
2023-04-17T02:06:37.021Z,34.17
2023-04-17T02:09:04.572Z,31.97
2023-04-17T02:11:32.126Z,31.13
2023-04-17T02:13:59.650Z,29.43
2023-04-17T02:16:28.084Z,31.63
2023-04-17T02:18:55.518Z,31.90
2023-04-17T02:21:23.052Z,31.17
2023-04-17T02:23:50.616Z,30.57
2023-04-17T02:26:18.205Z,30.10
2023-04-17T02:28:45.762Z,31.23
2023-04-17T02:31:13.321Z,30.33
2023-04-17T02:33:41.633Z,30.67
2023-04-17T02:36:09.207Z,30.07
2023-04-17T02:38:36.740Z,34.85
2023-04-17T02:41:04.660Z,33.30
2023-04-17T02:43:32.239Z,29.47
2023-04-17T02:45:59.751Z,32.60
2023-04-17T02:48:28.074Z,28.87
2023-04-17T02:50:55.624Z,26.63
2023-04-17T02:53:23.164Z,27.40
2023-04-17T02:55:50.738Z,30.40
2023-04-17T02:58:18.292Z,27.70
2023-04-17T03:00:45.956Z,29.97
2023-04-17T03:03:13.806Z,26.77
2023-04-17T03:05:41.274Z,25.37
2023-04-17T03:08:08.827Z,28.03
2023-04-17T03:10:37.189Z,23.20
2023-04-17T03:13:04.754Z,25.50
2023-04-17T03:15:33.085Z,24.50
2023-04-17T03:18:00.733Z,28.47
2023-04-17T03:20:28.202Z,23.60
2023-04-17T03:22:55.737Z,24.40
2023-04-17T03:25:23.322Z,24.37
2023-04-17T03:27:50.908Z,24.93
2023-04-17T03:30:18.420Z,24.17
2023-04-17T03:32:46.024Z,23.10
2023-04-17T03:35:13.549Z,23.30
2023-04-17T03:37:41.122Z,24.33
2023-04-17T03:40:08.730Z,21.33
2023-04-17T03:42:37.030Z,20.60
2023-04-17T03:45:04.639Z,25.37
2023-04-17T03:47:32.978Z,25.43
2023-04-17T03:50:01.284Z,22.87
2023-04-17T03:52:28.839Z,22.90
2023-04-17T03:54:56.475Z,23.03
2023-04-17T03:57:24.006Z,23.03
2023-04-17T03:59:51.549Z,26.07
2023-04-17T04:02:19.975Z,23.47
2023-04-17T04:04:47.712Z,22.37
2023-04-17T04:07:14.979Z,26.17
2023-04-17T04:09:42.539Z,22.73
2023-04-17T04:12:10.085Z,22.33
2023-04-17T04:14:39.135Z,22.63
2023-04-17T04:17:05.969Z,23.07
2023-04-17T04:19:33.513Z,26.42
2023-04-17T04:22:01.060Z,25.30
2023-04-17T04:24:28.640Z,21.20
2023-04-17T04:26:56.474Z,23.57
2023-04-17T04:29:24.030Z,24.60
2023-04-17T04:31:51.672Z,22.73
2023-04-17T04:34:19.210Z,22.60
2023-04-17T04:36:46.730Z,21.50
2023-04-17T04:39:14.317Z,27.33
2023-04-17T04:41:41.822Z,23.07
2023-04-17T04:44:09.357Z,25.13
2023-04-17T04:46:37.815Z,22.27
2023-04-17T04:49:05.252Z,25.50
2023-04-17T04:51:32.856Z,25.83
2023-04-17T04:54:00.466Z,25.93
2023-04-17T04:56:28.025Z,22.87
2023-04-17T04:58:55.553Z,25.20
2023-04-17T05:01:23.275Z,21.60
2023-04-17T05:03:50.759Z,21.80
2023-04-17T05:06:18.203Z,26.02
2023-04-17T05:08:45.764Z,22.60
2023-04-17T05:11:14.104Z,21.43
2023-04-17T05:13:41.643Z,24.73
2023-04-17T05:16:09.278Z,23.67
2023-04-17T05:18:36.780Z,22.03
2023-04-17T05:21:04.337Z,20.90
2023-04-17T05:23:31.884Z,22.73
2023-04-17T05:25:59.433Z,23.83
2023-04-17T05:28:26.944Z,25.90
2023-04-17T05:30:54.537Z,24.20
2023-04-17T05:33:22.080Z,24.43
2023-04-17T05:35:50.369Z,32.87
2023-04-17T05:38:17.982Z,22.00
2023-04-17T05:40:45.511Z,24.20
2023-04-17T05:43:13.041Z,28.63
2023-04-17T05:45:43.870Z,26.87
2023-04-17T05:48:11.385Z,28.97
2023-04-17T05:50:38.921Z,26.83
2023-04-17T05:53:06.524Z,27.00
2023-04-17T05:55:34.044Z,27.10
2023-04-17T05:58:10.462Z,32.08
2023-04-17T06:00:29.172Z,30.13
2023-04-17T06:02:56.959Z,28.00
2023-04-17T06:05:24.296Z,31.23
2023-04-17T06:07:51.840Z,32.00
2023-04-17T06:10:19.389Z,33.57
2023-04-17T06:12:46.930Z,28.83
2023-04-17T06:15:15.289Z,27.07
2023-04-17T06:17:42.860Z,34.20
2023-04-17T06:20:13.086Z,30.03
2023-04-17T06:22:40.689Z,34.85
2023-04-17T06:25:08.280Z,31.87
2023-04-17T06:27:36.950Z,31.73
2023-04-17T06:30:03.552Z,28.90
2023-04-17T06:32:31.146Z,30.73
2023-04-17T06:34:59.752Z,32.57
2023-04-17T06:37:27.048Z,30.37
2023-04-17T06:39:54.575Z,29.73
2023-04-17T06:42:22.887Z,32.27
2023-04-17T06:44:50.471Z,32.90
2023-04-17T06:47:18.070Z,31.33
2023-04-17T06:49:45.533Z,34.00
2023-04-17T06:52:13.877Z,32.80
2023-04-17T06:54:41.421Z,30.93
2023-04-17T06:57:08.954Z,34.03
2023-04-17T06:59:36.564Z,32.27
2023-04-17T07:02:04.206Z,32.77
2023-04-17T07:04:31.780Z,35.72
2023-04-17T07:06:59.239Z,32.70
2023-04-17T07:09:26.824Z,34.90
2023-04-17T07:11:55.155Z,32.73
2023-04-17T07:14:22.717Z,35.37
2023-04-17T07:16:50.335Z,29.70
2023-04-17T07:19:17.815Z,32.60
2023-04-17T07:21:45.380Z,34.43
2023-04-17T07:24:12.926Z,35.07
2023-04-17T07:26:40.521Z,27.40
2023-04-17T07:29:08.817Z,26.03
2023-04-17T07:31:36.415Z,28.87
2023-04-17T07:34:03.869Z,26.77
2023-04-17T07:36:31.447Z,27.70
2023-04-17T07:38:59.010Z,25.70
2023-04-17T07:41:26.532Z,30.13
2023-04-17T07:43:54.126Z,25.70
2023-04-17T07:46:21.765Z,24.33
2023-04-17T07:48:50.042Z,24.57
2023-04-17T07:51:17.648Z,19.70
2023-04-17T07:53:45.219Z,19.67
2023-04-17T07:56:12.841Z,21.23
2023-04-17T07:58:40.477Z,21.73
2023-04-17T08:01:08.041Z,22.52
2023-04-17T08:03:35.839Z,20.80
2023-04-17T08:06:03.944Z,32.67
2023-04-17T08:08:31.478Z,22.80
2023-04-17T08:10:59.011Z,19.03
2023-04-17T08:13:26.627Z,20.13
2023-04-17T08:15:54.943Z,19.07
2023-04-17T08:18:22.524Z,21.37
2023-04-17T08:20:50.818Z,19.37
2023-04-17T08:23:18.375Z,20.97
2023-04-17T08:25:45.902Z,20.85
2023-04-17T08:28:13.445Z,21.57
2023-04-17T08:30:41.020Z,22.57
2023-04-17T08:33:08.661Z,20.87
2023-04-17T08:35:36.218Z,21.77
2023-04-17T08:38:03.782Z,21.13
2023-04-17T08:40:32.110Z,21.10
2023-04-17T08:42:59.644Z,19.50
2023-04-17T08:45:27.201Z,20.37
2023-04-17T08:47:54.817Z,17.30
2023-04-17T08:50:32.690Z,21.43
2023-04-17T08:53:00.227Z,23.33
2023-04-17T08:55:27.763Z,27.05
2023-04-17T08:57:58.101Z,22.20
2023-04-17T09:00:25.667Z,25.27
2023-04-17T09:02:53.313Z,20.80
2023-04-17T09:05:20.799Z,22.00
2023-04-17T09:07:49.565Z,23.87
2023-04-17T09:10:15.932Z,19.03
2023-04-17T09:12:43.535Z,17.37
2023-04-17T09:15:16.860Z,17.77
2023-04-17T09:17:44.456Z,19.43
2023-04-17T09:20:12.085Z,19.10
2023-04-17T09:22:42.393Z,18.17
2023-04-17T09:25:16.039Z,24.23
2023-04-17T09:27:43.624Z,16.40
2023-04-17T09:30:11.951Z,18.50
2023-04-17T09:32:39.619Z,14.87
2023-04-17T09:35:07.343Z,14.40
2023-04-17T09:37:34.876Z,18.93
2023-04-17T09:40:03.190Z,15.97
2023-04-17T09:42:30.754Z,17.60
2023-04-17T09:44:58.275Z,15.10
2023-04-17T09:47:26.596Z,14.30
2023-04-17T09:49:54.175Z,14.37
2023-04-17T09:52:21.724Z,14.67
2023-04-17T09:54:49.267Z,16.67
2023-04-17T09:57:16.833Z,15.80
2023-04-17T09:59:46.782Z,15.20
2023-04-17T10:02:14.504Z,15.97
2023-04-17T10:04:42.048Z,16.00
2023-04-17T10:07:10.268Z,19.43
2023-04-17T10:09:37.777Z,21.93
2023-04-17T10:12:05.471Z,24.50
2023-04-17T10:14:35.712Z,23.67
2023-04-17T10:17:03.243Z,23.57
2023-04-17T10:19:30.851Z,25.67
2023-04-17T10:22:19.616Z,28.47
2023-04-17T10:24:53.881Z,27.07
2023-04-17T10:27:27.677Z,29.35
2023-04-17T10:29:55.201Z,27.87
2023-04-17T10:32:25.292Z,26.50
2023-04-17T10:34:53.543Z,23.50
2023-04-17T10:37:21.098Z,24.97
2023-04-17T10:40:00.686Z,22.60
2023-04-17T10:42:30.990Z,21.40
2023-04-17T10:44:58.495Z,23.97
2023-04-17T10:47:31.713Z,25.07
2023-04-17T10:49:59.237Z,25.00
2023-04-17T10:52:39.141Z,22.03
2023-04-17T10:55:09.694Z,22.13
2023-04-17T10:57:55.960Z,24.67
2023-04-17T11:00:38.800Z,19.13
2023-04-17T11:03:06.544Z,18.93
2023-04-17T11:05:33.938Z,21.67
2023-04-17T11:08:02.238Z,16.30
2023-04-17T11:10:29.847Z,17.63
2023-04-17T11:12:57.386Z,18.07
2023-04-17T11:15:27.845Z,20.57
2023-04-17T11:17:55.589Z,21.33
2023-04-17T11:20:23.071Z,21.20
2023-04-17T11:22:51.384Z,18.40
2023-04-17T11:25:24.527Z,21.97
2023-04-17T11:27:57.759Z,23.03
2023-04-17T11:30:34.096Z,22.67
2023-04-17T11:33:01.703Z,24.33
2023-04-17T11:35:34.816Z,20.20
2023-04-17T11:38:08.341Z,22.63
2023-04-17T11:40:36.663Z,20.37
2023-04-17T11:43:07.090Z,18.83
2023-04-17T11:45:34.694Z,18.93
2023-04-17T11:48:02.326Z,22.07
2023-04-17T11:50:29.762Z,19.77
2023-04-17T11:53:03.535Z,20.20
2023-04-17T11:55:31.856Z,17.23
2023-04-17T11:58:01.979Z,17.27
2023-04-17T12:00:30.227Z,20.07
2023-04-17T12:02:58.026Z,18.63
2023-04-17T12:05:26.129Z,16.63
2023-04-17T12:07:59.432Z,16.87
2023-04-17T12:10:39.649Z,16.67
2023-04-17T12:13:07.192Z,22.33
2023-04-17T12:15:34.779Z,16.23
2023-04-17T12:18:02.425Z,21.33
2023-04-17T12:20:29.908Z,17.33
2023-04-17T12:22:57.443Z,16.27
2023-04-17T12:25:24.995Z,17.37
2023-04-17T12:27:52.579Z,17.17
2023-04-17T12:30:20.132Z,12.67
2023-04-17T12:32:47.718Z,14.03
2023-04-17T12:35:17.688Z,14.03
2023-04-17T12:37:45.219Z,15.93
2023-04-17T12:40:12.753Z,12.60
2023-04-17T12:42:48.777Z,13.30
2023-04-17T12:45:09.520Z,16.23
2023-04-17T12:47:37.883Z,14.57
2023-04-17T12:50:05.600Z,13.17
2023-04-17T12:52:33.134Z,10.27
2023-04-17T12:55:00.670Z,10.63
2023-04-17T12:57:29.015Z,12.10
2023-04-17T12:59:56.546Z,16.00
2023-04-17T13:02:24.265Z,14.25
2023-04-17T13:04:53.551Z,12.27
2023-04-17T13:07:19.533Z,14.60
2023-04-17T13:09:47.075Z,12.73
2023-04-17T13:12:14.644Z,13.83
2023-04-17T13:14:42.325Z,10.80
2023-04-17T13:17:10.661Z,12.60
2023-04-17T13:19:38.235Z,10.47
2023-04-17T13:22:05.764Z,11.83
2023-04-17T13:24:34.135Z,11.53
2023-04-17T13:27:01.675Z,9.60
2023-04-17T13:29:29.212Z,10.53
2023-04-17T13:31:56.756Z,11.20
2023-04-17T13:34:24.399Z,9.60
2023-04-17T13:36:51.918Z,10.87
2023-04-17T13:39:19.451Z,10.82
2023-04-17T13:41:47.042Z,9.20
2023-04-17T13:44:14.565Z,9.90
2023-04-17T13:46:42.221Z,10.88
2023-04-17T13:49:09.933Z,9.70
2023-04-17T13:51:37.406Z,11.88
2023-04-17T13:54:05.705Z,10.30
2023-04-17T13:56:33.303Z,10.43
2023-04-17T13:59:00.832Z,9.67
2023-04-17T14:01:28.390Z,9.93
2023-04-17T14:03:56.056Z,9.60
2023-04-17T14:06:23.515Z,9.20
2023-04-17T14:08:51.075Z,7.80
2023-04-17T14:11:18.648Z,10.50
2023-04-17T14:13:46.193Z,8.60
2023-04-17T14:16:13.761Z,7.50
2023-04-17T14:18:42.058Z,8.30
2023-04-17T14:21:09.589Z,7.13
2023-04-17T14:23:37.117Z,8.53
2023-04-17T14:26:04.676Z,9.43
2023-04-17T14:28:32.224Z,10.60
2023-04-17T14:31:00.582Z,8.13
2023-04-17T14:33:28.098Z,8.80
2023-04-17T14:35:55.643Z,9.63
2023-04-17T14:38:23.188Z,8.47
2023-04-17T14:40:50.869Z,8.50
2023-04-17T14:43:18.406Z,8.17
2023-04-17T14:45:45.948Z,8.40
2023-04-17T14:48:13.567Z,9.27
2023-04-17T14:50:41.819Z,11.03
2023-04-17T14:53:09.344Z,9.80
2023-04-17T14:55:37.001Z,10.67
2023-04-17T14:58:04.522Z,10.43
2023-04-17T15:00:32.054Z,8.50
2023-04-17T15:03:00.536Z,11.37
2023-04-17T15:05:27.895Z,10.93
2023-04-17T15:07:55.458Z,11.70
2023-04-17T15:10:22.991Z,8.57
2023-04-17T15:12:50.557Z,8.97
2023-04-17T15:15:18.082Z,9.40
2023-04-17T15:17:46.242Z,9.57
2023-04-17T15:20:13.722Z,10.03
2023-04-17T15:22:42.023Z,10.07
2023-04-17T15:25:09.632Z,8.70
2023-04-17T15:27:37.178Z,8.73
2023-04-17T15:30:04.765Z,12.03
2023-04-17T15:32:32.392Z,11.23
2023-04-17T15:34:59.857Z,9.52
2023-04-17T15:37:27.385Z,11.50
2023-04-17T15:39:54.980Z,12.47
2023-04-17T15:42:22.520Z,12.53
2023-04-17T15:44:50.037Z,9.50
2023-04-17T15:47:18.380Z,11.20
2023-04-17T15:49:45.904Z,11.30
2023-04-17T15:52:13.435Z,12.20
2023-04-17T15:54:41.812Z,11.93
2023-04-17T15:57:10.090Z,9.23
2023-04-17T15:59:38.405Z,12.83
2023-04-17T16:02:06.142Z,10.20
2023-04-17T16:04:34.446Z,11.87
2023-04-17T16:07:01.893Z,12.60
2023-04-17T16:09:29.447Z,11.83
2023-04-17T16:11:56.972Z,12.20
2023-04-17T16:14:25.300Z,12.10
2023-04-17T16:16:52.897Z,12.47
2023-04-17T16:19:20.453Z,16.87
2023-04-17T16:21:48.005Z,11.88
2023-04-17T16:24:15.570Z,11.32
2023-04-17T16:26:43.121Z,13.93
2023-04-17T16:29:10.887Z,10.27
2023-04-17T16:31:38.388Z,10.73
2023-04-17T16:34:05.846Z,10.97
2023-04-17T16:36:33.498Z,11.77
2023-04-17T16:39:01.755Z,12.97
2023-04-17T16:41:31.048Z,11.53
2023-04-17T16:43:56.786Z,10.37
2023-04-17T16:46:35.403Z,11.27
2023-04-17T16:48:52.864Z,10.43
2023-04-17T16:51:26.307Z,12.23
2023-04-17T16:53:55.255Z,10.80
2023-04-17T16:56:22.798Z,11.07
2023-04-17T16:58:50.481Z,10.10
2023-04-17T17:01:18.136Z,7.77
2023-04-17T17:03:46.501Z,11.80
2023-04-17T17:06:13.994Z,11.00
2023-04-17T17:08:41.554Z,10.03
2023-04-17T17:11:09.101Z,8.98
2023-04-17T17:13:36.638Z,9.50
2023-04-17T17:16:04.275Z,9.20
2023-04-17T17:18:31.785Z,9.00
2023-04-17T17:20:59.313Z,8.07
2023-04-17T17:23:26.865Z,10.73
2023-04-17T17:25:54.422Z,9.33
2023-04-17T17:28:21.957Z,10.33
2023-04-17T17:30:50.311Z,8.70
2023-04-17T17:33:17.857Z,10.80
2023-04-17T17:35:45.390Z,9.82
2023-04-17T17:38:13.001Z,9.83
2023-04-17T17:40:41.309Z,10.00
2023-04-17T17:43:08.838Z,9.37
2023-04-17T17:45:36.493Z,8.23
2023-04-17T17:48:04.099Z,10.87
2023-04-17T17:50:32.272Z,7.47
2023-04-17T17:52:59.838Z,8.70
2023-04-17T17:55:27.359Z,7.53
2023-04-17T17:57:55.672Z,7.30
2023-04-17T18:00:23.288Z,5.47
2023-04-17T18:02:50.875Z,5.90
2023-04-17T18:05:18.326Z,8.80
2023-04-17T18:07:46.678Z,7.50
2023-04-17T18:10:14.201Z,6.20
2023-04-17T18:12:41.724Z,8.00
2023-04-17T18:15:10.122Z,6.40
2023-04-17T18:17:37.745Z,8.23
2023-04-17T18:20:06.026Z,7.53
2023-04-17T18:22:33.580Z,7.93
2023-04-17T18:25:01.115Z,6.70
2023-04-17T18:27:28.631Z,8.83
2023-04-17T18:29:57.004Z,7.33
2023-04-17T18:32:24.559Z,6.87
2023-04-17T18:34:52.832Z,6.40
2023-04-17T18:37:20.406Z,6.53
2023-04-17T18:39:47.999Z,7.60
2023-04-17T18:42:15.596Z,7.73
2023-04-17T18:44:43.120Z,7.57
2023-04-17T18:47:11.500Z,7.33
2023-04-17T18:49:39.007Z,8.45
2023-04-17T18:52:07.349Z,5.80
2023-04-17T18:54:34.935Z,5.57
2023-04-17T18:57:03.243Z,5.93
2023-04-17T18:59:30.773Z,8.87
2023-04-17T19:01:59.901Z,5.20
2023-04-17T19:04:27.421Z,8.67
2023-04-17T19:06:55.728Z,8.83
2023-04-17T19:09:23.338Z,5.73
2023-04-17T19:11:50.865Z,4.90
2023-04-17T19:14:18.389Z,6.70
2023-04-17T19:16:47.360Z,8.03
2023-04-17T19:19:13.657Z,8.30
2023-04-17T19:21:41.029Z,8.80
2023-04-17T19:24:08.608Z,6.20
2023-04-17T19:26:36.901Z,9.83
2023-04-17T19:29:04.433Z,8.23
2023-04-17T19:31:32.825Z,6.30
2023-04-17T19:34:00.315Z,9.00
2023-04-17T19:36:27.859Z,13.33
2023-04-17T19:38:59.963Z,8.80
2023-04-17T19:41:27.544Z,9.03
2023-04-17T19:43:55.116Z,6.97
2023-04-17T19:46:23.038Z,8.73
2023-04-17T19:48:50.493Z,10.67
2023-04-17T19:51:18.065Z,9.63
2023-04-17T19:53:45.830Z,9.33
2023-04-17T19:56:13.355Z,7.93
2023-04-17T19:58:41.015Z,7.37
2023-04-17T20:01:08.689Z,11.37
2023-04-17T20:03:36.412Z,9.03
2023-04-17T20:06:12.597Z,9.27
2023-04-17T20:08:40.093Z,8.75
2023-04-17T20:11:07.633Z,8.70
2023-04-17T20:13:35.234Z,11.00
2023-04-17T20:16:02.806Z,7.00
2023-04-17T20:18:30.335Z,7.67
2023-04-17T20:20:57.845Z,7.67
2023-04-17T20:23:25.490Z,8.70
2023-04-17T20:25:53.002Z,7.23
2023-04-17T20:28:20.553Z,9.23
2023-04-17T20:30:48.116Z,9.23
2023-04-17T20:33:15.745Z,7.07
2023-04-17T20:35:43.232Z,8.87
2023-04-17T20:38:10.786Z,6.07
2023-04-17T20:40:38.339Z,6.50
2023-04-17T20:43:05.858Z,7.30
2023-04-17T20:45:34.218Z,9.97
2023-04-17T20:48:01.849Z,5.47
2023-04-17T20:50:29.279Z,8.47
2023-04-17T20:52:56.904Z,7.90
2023-04-17T20:55:24.465Z,7.70
2023-04-17T20:57:51.946Z,5.70
2023-04-17T21:00:19.514Z,6.83
2023-04-17T21:02:47.122Z,7.93
2023-04-17T21:05:15.351Z,9.03
2023-04-17T21:07:43.010Z,7.37
2023-04-17T21:10:10.525Z,7.63
2023-04-17T21:12:38.057Z,7.60
2023-04-17T21:15:05.742Z,8.73
2023-04-17T21:17:33.317Z,7.73
2023-04-17T21:20:00.805Z,8.07
2023-04-17T21:22:28.383Z,6.83
2023-04-17T21:24:55.921Z,7.00
2023-04-17T21:27:23.485Z,5.77
2023-04-17T21:29:51.082Z,9.60
2023-04-17T21:32:18.590Z,8.60
2023-04-17T21:34:46.893Z,7.60
2023-04-17T21:37:14.458Z,9.00
2023-04-17T21:39:41.984Z,8.77
2023-04-17T21:42:10.268Z,8.90
2023-04-17T21:44:37.863Z,6.20
2023-04-17T21:47:05.367Z,8.57
2023-04-17T21:49:33.691Z,6.97
2023-04-17T21:52:01.277Z,7.27
2023-04-17T21:54:28.807Z,9.00
2023-04-17T21:56:56.348Z,6.63
2023-04-17T21:59:24.207Z,7.00
2023-04-17T22:01:52.586Z,6.83
2023-04-17T22:04:20.066Z,9.53
2023-04-17T22:06:48.214Z,6.77
2023-04-17T22:09:15.751Z,6.70
2023-04-17T22:11:44.060Z,8.93
2023-04-17T22:14:11.859Z,7.53
2023-04-17T22:16:39.207Z,8.67
2023-04-17T22:19:07.464Z,6.83
2023-04-17T22:21:35.031Z,7.13
2023-04-17T22:24:02.574Z,7.17
2023-04-17T22:26:30.099Z,7.87
2023-04-17T22:28:58.553Z,8.07
2023-04-17T22:31:26.144Z,7.13
2023-04-17T22:33:53.627Z,10.43
2023-04-17T22:36:21.544Z,8.63
2023-04-17T22:38:49.070Z,7.30
2023-04-17T22:41:16.595Z,7.97
2023-04-17T22:43:45.173Z,8.77
2023-04-17T22:46:13.540Z,8.90
2023-04-17T22:48:41.015Z,8.30
2023-04-17T22:51:10.320Z,8.03
2023-04-17T22:53:37.880Z,10.67
2023-04-17T22:56:06.166Z,9.43
2023-04-17T22:58:33.753Z,8.20
2023-04-17T23:01:01.310Z,9.10
2023-04-17T23:03:28.920Z,10.10
2023-04-17T23:05:58.238Z,7.00
2023-04-17T23:08:25.761Z,9.63
2023-04-17T23:10:59.492Z,8.73
2023-04-17T23:13:27.810Z,9.37
2023-04-17T23:15:55.360Z,11.20
2023-04-17T23:18:22.889Z,11.93
2023-04-17T23:20:51.792Z,10.87
2023-04-17T23:23:19.321Z,9.33
2023-04-17T23:25:47.660Z,11.13
2023-04-17T23:28:15.519Z,10.37
2023-04-17T23:30:43.058Z,9.53
2023-04-17T23:33:10.591Z,9.20
2023-04-17T23:35:38.923Z,12.77
2023-04-17T23:38:06.457Z,10.30
2023-04-17T23:40:33.984Z,7.30
2023-04-17T23:43:02.701Z,9.80
2023-04-17T23:45:30.235Z,8.83
2023-04-17T23:47:58.585Z,8.70
2023-04-17T23:50:26.397Z,10.03
2023-04-17T23:52:53.940Z,7.80
2023-04-17T23:55:24.390Z,10.57
2023-04-17T23:57:52.609Z,12.77
